sensor_id;sensor_type;location;lat;lon;timestamp;temperature;humidity
57434;DHT22;43277;52.672;6.984;2022-08-21T00:02:26;16.00;99.90
57434;DHT22;43277;52.672;6.984;2022-08-21T00:04:53;15.90;99.90
57434;DHT22;43277;52.672;6.984;2022-08-21T00:07:20;15.90;99.90
57434;DHT22;43277;52.672;6.984;2022-08-21T00:09:47;15.90;99.90
57434;DHT22;43277;52.672;6.984;2022-08-21T00:12:12;15.90;99.90
57434;DHT22;43277;52.672;6.984;2022-08-21T00:14:39;15.80;99.90
57434;DHT22;43277;52.672;6.984;2022-08-21T00:17:05;15.80;99.90
57434;DHT22;43277;52.672;6.984;2022-08-21T00:19:31;15.70;99.90
57434;DHT22;43277;52.672;6.984;2022-08-21T00:21:57;15.60;99.90
57434;DHT22;43277;52.672;6.984;2022-08-21T00:24:24;15.60;99.90
57434;DHT22;43277;52.672;6.984;2022-08-21T00:26:50;15.60;99.90
57434;DHT22;43277;52.672;6.984;2022-08-21T00:29:17;15.60;99.90
57434;DHT22;43277;52.672;6.984;2022-08-21T00:31:43;15.60;99.90
57434;DHT22;43277;52.672;6.984;2022-08-21T00:34:10;15.50;99.90
57434;DHT22;43277;52.672;6.984;2022-08-21T00:36:36;15.50;99.90
57434;DHT22;43277;52.672;6.984;2022-08-21T00:39:04;15.40;99.90
57434;DHT22;43277;52.672;6.984;2022-08-21T00:41:30;15.40;99.90
57434;DHT22;43277;52.672;6.984;2022-08-21T00:43:55;15.40;99.90
57434;DHT22;43277;52.672;6.984;2022-08-21T00:46:21;15.40;99.90
57434;DHT22;43277;52.672;6.984;2022-08-21T00:48:47;15.40;99.90
57434;DHT22;43277;52.672;6.984;2022-08-21T00:51:17;15.40;99.90
57434;DHT22;43277;52.672;6.984;2022-08-21T00:53:51;15.40;99.90
57434;DHT22;43277;52.672;6.984;2022-08-21T00:56:19;15.30;99.90
57434;DHT22;43277;52.672;6.984;2022-08-21T00:58:46;15.30;99.90
57434;DHT22;43277;52.672;6.984;2022-08-21T01:01:13;15.30;99.90
57434;DHT22;43277;52.672;6.984;2022-08-21T01:03:40;15.30;99.90
57434;DHT22;43277;52.672;6.984;2022-08-21T01:06:07;15.20;99.90
57434;DHT22;43277;52.672;6.984;2022-08-21T01:08:34;15.10;99.90
57434;DHT22;43277;52.672;6.984;2022-08-21T01:11:00;15.10;99.90
57434;DHT22;43277;52.672;6.984;2022-08-21T01:13:29;15.00;99.90
57434;DHT22;43277;52.672;6.984;2022-08-21T01:15:58;15.10;99.90
57434;DHT22;43277;52.672;6.984;2022-08-21T01:18:25;15.10;99.90
57434;DHT22;43277;52.672;6.984;2022-08-21T01:21:15;15.20;99.90
57434;DHT22;43277;52.672;6.984;2022-08-21T01:23:44;15.30;99.90
57434;DHT22;43277;52.672;6.984;2022-08-21T01:26:12;15.40;99.90
57434;DHT22;43277;52.672;6.984;2022-08-21T01:28:42;15.50;99.90
57434;DHT22;43277;52.672;6.984;2022-08-21T01:31:10;15.50;99.90
57434;DHT22;43277;52.672;6.984;2022-08-21T01:33:38;15.50;99.90
57434;DHT22;43277;52.672;6.984;2022-08-21T01:36:04;15.60;99.90
57434;DHT22;43277;52.672;6.984;2022-08-21T01:38:29;15.50;99.90
57434;DHT22;43277;52.672;6.984;2022-08-21T01:40:56;15.50;99.90
57434;DHT22;43277;52.672;6.984;2022-08-21T01:43:21;15.50;99.90
57434;DHT22;43277;52.672;6.984;2022-08-21T01:45:47;15.40;99.90
57434;DHT22;43277;52.672;6.984;2022-08-21T01:48:12;15.40;99.90
57434;DHT22;43277;52.672;6.984;2022-08-21T01:50:38;15.30;99.90
57434;DHT22;43277;52.672;6.984;2022-08-21T01:53:04;15.30;99.90
57434;DHT22;43277;52.672;6.984;2022-08-21T01:55:30;15.30;99.90
57434;DHT22;43277;52.672;6.984;2022-08-21T01:57:57;15.40;99.90
57434;DHT22;43277;52.672;6.984;2022-08-21T02:00:24;15.30;99.90
57434;DHT22;43277;52.672;6.984;2022-08-21T02:02:50;15.30;99.90
57434;DHT22;43277;52.672;6.984;2022-08-21T02:05:15;15.40;99.90
57434;DHT22;43277;52.672;6.984;2022-08-21T02:07:45;15.30;99.90
57434;DHT22;43277;52.672;6.984;2022-08-21T02:10:15;15.30;99.90
57434;DHT22;43277;52.672;6.984;2022-08-21T02:12:41;15.20;99.90
57434;DHT22;43277;52.672;6.984;2022-08-21T02:15:08;15.20;99.90
57434;DHT22;43277;52.672;6.984;2022-08-21T02:17:43;15.10;99.90
57434;DHT22;43277;52.672;6.984;2022-08-21T02:20:11;15.10;99.90
57434;DHT22;43277;52.672;6.984;2022-08-21T02:22:39;15.00;99.90
57434;DHT22;43277;52.672;6.984;2022-08-21T02:25:05;14.90;99.90
57434;DHT22;43277;52.672;6.984;2022-08-21T02:27:38;14.90;99.90
57434;DHT22;43277;52.672;6.984;2022-08-21T02:30:04;14.90;99.90
57434;DHT22;43277;52.672;6.984;2022-08-21T02:32:29;14.80;99.90
57434;DHT22;43277;52.672;6.984;2022-08-21T02:34:56;14.70;99.90
57434;DHT22;43277;52.672;6.984;2022-08-21T02:37:23;14.70;99.90
57434;DHT22;43277;52.672;6.984;2022-08-21T02:39:48;14.70;99.90
57434;DHT22;43277;52.672;6.984;2022-08-21T02:42:15;14.60;99.90
57434;DHT22;43277;52.672;6.984;2022-08-21T02:44:41;14.60;99.90
57434;DHT22;43277;52.672;6.984;2022-08-21T02:47:06;14.60;99.90
57434;DHT22;43277;52.672;6.984;2022-08-21T02:49:32;14.50;99.90
57434;DHT22;43277;52.672;6.984;2022-08-21T02:51:58;14.40;99.90
57434;DHT22;43277;52.672;6.984;2022-08-21T02:54:23;14.40;99.90
57434;DHT22;43277;52.672;6.984;2022-08-21T02:56:49;14.40;99.90
57434;DHT22;43277;52.672;6.984;2022-08-21T02:59:14;14.40;99.90
57434;DHT22;43277;52.672;6.984;2022-08-21T03:01:40;14.30;99.90
57434;DHT22;43277;52.672;6.984;2022-08-21T03:04:05;14.30;99.90
57434;DHT22;43277;52.672;6.984;2022-08-21T03:06:31;14.20;99.90
57434;DHT22;43277;52.672;6.984;2022-08-21T03:08:57;14.30;99.90
57434;DHT22;43277;52.672;6.984;2022-08-21T03:11:22;14.20;99.90
57434;DHT22;43277;52.672;6.984;2022-08-21T03:13:48;14.20;99.90
57434;DHT22;43277;52.672;6.984;2022-08-21T03:16:14;14.20;99.90
57434;DHT22;43277;52.672;6.984;2022-08-21T03:18:40;14.00;99.90
57434;DHT22;43277;52.672;6.984;2022-08-21T03:21:06;14.10;99.90
57434;DHT22;43277;52.672;6.984;2022-08-21T03:23:32;14.00;99.90
57434;DHT22;43277;52.672;6.984;2022-08-21T03:25:58;13.90;99.90
57434;DHT22;43277;52.672;6.984;2022-08-21T03:28:24;13.90;99.90
57434;DHT22;43277;52.672;6.984;2022-08-21T03:30:51;13.80;99.90
57434;DHT22;43277;52.672;6.984;2022-08-21T03:33:17;13.80;99.90
57434;DHT22;43277;52.672;6.984;2022-08-21T03:35:46;13.80;99.90
57434;DHT22;43277;52.672;6.984;2022-08-21T03:38:13;13.80;99.90
57434;DHT22;43277;52.672;6.984;2022-08-21T03:40:39;13.70;99.90
57434;DHT22;43277;52.672;6.984;2022-08-21T03:43:04;13.70;99.90
57434;DHT22;43277;52.672;6.984;2022-08-21T03:45:34;13.60;99.90
57434;DHT22;43277;52.672;6.984;2022-08-21T03:48:03;13.50;99.90
57434;DHT22;43277;52.672;6.984;2022-08-21T03:50:32;13.50;99.90
57434;DHT22;43277;52.672;6.984;2022-08-21T03:52:58;13.50;99.90
57434;DHT22;43277;52.672;6.984;2022-08-21T03:55:25;13.50;99.90
57434;DHT22;43277;52.672;6.984;2022-08-21T03:57:50;13.60;99.90
57434;DHT22;43277;52.672;6.984;2022-08-21T04:00:17;13.60;99.90
57434;DHT22;43277;52.672;6.984;2022-08-21T04:02:44;13.70;99.90
57434;DHT22;43277;52.672;6.984;2022-08-21T04:05:12;13.70;99.90
57434;DHT22;43277;52.672;6.984;2022-08-21T04:07:38;13.70;99.90
57434;DHT22;43277;52.672;6.984;2022-08-21T04:10:05;13.70;99.90
57434;DHT22;43277;52.672;6.984;2022-08-21T04:12:31;13.70;99.90
57434;DHT22;43277;52.672;6.984;2022-08-21T04:14:57;13.70;99.90
57434;DHT22;43277;52.672;6.984;2022-08-21T04:17:22;13.70;99.90
57434;DHT22;43277;52.672;6.984;2022-08-21T04:19:48;13.60;99.90
57434;DHT22;43277;52.672;6.984;2022-08-21T04:22:15;13.60;99.90
57434;DHT22;43277;52.672;6.984;2022-08-21T04:24:41;13.50;99.90
57434;DHT22;43277;52.672;6.984;2022-08-21T04:27:07;13.50;99.90
57434;DHT22;43277;52.672;6.984;2022-08-21T04:29:32;13.50;99.90
57434;DHT22;43277;52.672;6.984;2022-08-21T04:31:58;13.50;99.90
57434;DHT22;43277;52.672;6.984;2022-08-21T04:34:24;13.50;99.90
57434;DHT22;43277;52.672;6.984;2022-08-21T04:36:50;13.50;99.90
57434;DHT22;43277;52.672;6.984;2022-08-21T04:39:15;13.40;99.90
57434;DHT22;43277;52.672;6.984;2022-08-21T04:41:41;13.40;99.90
57434;DHT22;43277;52.672;6.984;2022-08-21T04:44:07;13.40;99.90
57434;DHT22;43277;52.672;6.984;2022-08-21T04:46:34;13.40;99.90
57434;DHT22;43277;52.672;6.984;2022-08-21T04:48:59;13.40;99.90
57434;DHT22;43277;52.672;6.984;2022-08-21T04:51:35;13.40;99.90
57434;DHT22;43277;52.672;6.984;2022-08-21T04:54:14;13.40;99.90
57434;DHT22;43277;52.672;6.984;2022-08-21T04:56:45;13.40;99.90
57434;DHT22;43277;52.672;6.984;2022-08-21T04:59:35;13.40;99.90
57434;DHT22;43277;52.672;6.984;2022-08-21T05:02:02;13.50;99.90
57434;DHT22;43277;52.672;6.984;2022-08-21T05:04:30;13.40;99.90
57434;DHT22;43277;52.672;6.984;2022-08-21T05:07:02;13.50;99.90
57434;DHT22;43277;52.672;6.984;2022-08-21T05:09:29;13.60;99.90
57434;DHT22;43277;52.672;6.984;2022-08-21T05:11:55;13.60;99.90
57434;DHT22;43277;52.672;6.984;2022-08-21T05:14:21;13.60;99.90
57434;DHT22;43277;52.672;6.984;2022-08-21T05:16:47;13.70;99.90
57434;DHT22;43277;52.672;6.984;2022-08-21T05:19:13;13.60;99.90
57434;DHT22;43277;52.672;6.984;2022-08-21T05:21:43;13.70;99.90
57434;DHT22;43277;52.672;6.984;2022-08-21T05:24:09;13.70;99.90
57434;DHT22;43277;52.672;6.984;2022-08-21T05:26:35;13.80;99.90
57434;DHT22;43277;52.672;6.984;2022-08-21T05:29:02;13.90;99.90
57434;DHT22;43277;52.672;6.984;2022-08-21T05:31:28;13.80;99.90
57434;DHT22;43277;52.672;6.984;2022-08-21T05:33:54;13.80;99.90
57434;DHT22;43277;52.672;6.984;2022-08-21T05:36:19;13.80;99.90
57434;DHT22;43277;52.672;6.984;2022-08-21T05:38:45;13.90;99.90
57434;DHT22;43277;52.672;6.984;2022-08-21T05:41:11;13.90;99.90
57434;DHT22;43277;52.672;6.984;2022-08-21T05:43:36;14.00;99.90
57434;DHT22;43277;52.672;6.984;2022-08-21T05:46:03;14.10;99.90
57434;DHT22;43277;52.672;6.984;2022-08-21T05:48:30;14.10;99.90
57434;DHT22;43277;52.672;6.984;2022-08-21T05:50:56;14.20;99.90
57434;DHT22;43277;52.672;6.984;2022-08-21T05:53:23;14.30;99.90
57434;DHT22;43277;52.672;6.984;2022-08-21T05:55:49;14.40;99.90
57434;DHT22;43277;52.672;6.984;2022-08-21T05:58:17;14.50;99.90
57434;DHT22;43277;52.672;6.984;2022-08-21T06:00:44;14.60;99.90
57434;DHT22;43277;52.672;6.984;2022-08-21T06:03:20;14.80;99.90
57434;DHT22;43277;52.672;6.984;2022-08-21T06:05:46;14.90;99.90
57434;DHT22;43277;52.672;6.984;2022-08-21T06:08:12;15.00;99.90
57434;DHT22;43277;52.672;6.984;2022-08-21T06:10:38;15.10;99.90
57434;DHT22;43277;52.672;6.984;2022-08-21T06:13:03;15.20;99.90
57434;DHT22;43277;52.672;6.984;2022-08-21T06:15:29;15.40;99.90
57434;DHT22;43277;52.672;6.984;2022-08-21T06:17:55;15.50;99.90
57434;DHT22;43277;52.672;6.984;2022-08-21T06:20:21;15.60;99.90
57434;DHT22;43277;52.672;6.984;2022-08-21T06:22:47;15.80;99.90
57434;DHT22;43277;52.672;6.984;2022-08-21T06:25:13;16.00;99.90
57434;DHT22;43277;52.672;6.984;2022-08-21T06:27:38;16.10;99.90
57434;DHT22;43277;52.672;6.984;2022-08-21T06:30:06;16.50;99.90
57434;DHT22;43277;52.672;6.984;2022-08-21T06:32:31;16.50;99.90
57434;DHT22;43277;52.672;6.984;2022-08-21T06:34:57;16.70;99.90
57434;DHT22;43277;52.672;6.984;2022-08-21T06:37:23;16.90;99.90
57434;DHT22;43277;52.672;6.984;2022-08-21T06:39:48;17.00;99.90
57434;DHT22;43277;52.672;6.984;2022-08-21T06:42:17;17.10;99.90
57434;DHT22;43277;52.672;6.984;2022-08-21T06:44:43;17.20;99.90
57434;DHT22;43277;52.672;6.984;2022-08-21T06:47:10;17.30;99.90
57434;DHT22;43277;52.672;6.984;2022-08-21T06:49:37;17.40;99.90
57434;DHT22;43277;52.672;6.984;2022-08-21T06:52:02;17.70;99.90
57434;DHT22;43277;52.672;6.984;2022-08-21T06:54:28;17.70;99.90
57434;DHT22;43277;52.672;6.984;2022-08-21T06:56:55;17.80;99.90
57434;DHT22;43277;52.672;6.984;2022-08-21T06:59:20;18.00;99.90
57434;DHT22;43277;52.672;6.984;2022-08-21T07:01:46;18.10;99.90
57434;DHT22;43277;52.672;6.984;2022-08-21T07:04:11;18.10;99.90
57434;DHT22;43277;52.672;6.984;2022-08-21T07:06:37;18.20;99.90
57434;DHT22;43277;52.672;6.984;2022-08-21T07:09:03;18.30;99.90
57434;DHT22;43277;52.672;6.984;2022-08-21T07:11:29;18.40;99.90
57434;DHT22;43277;52.672;6.984;2022-08-21T07:13:55;18.60;99.90
57434;DHT22;43277;52.672;6.984;2022-08-21T07:16:22;18.70;99.90
57434;DHT22;43277;52.672;6.984;2022-08-21T07:18:48;18.60;99.90
57434;DHT22;43277;52.672;6.984;2022-08-21T07:21:15;18.70;99.90
57434;DHT22;43277;52.672;6.984;2022-08-21T07:23:44;18.90;99.90
57434;DHT22;43277;52.672;6.984;2022-08-21T07:26:11;19.00;99.90
57434;DHT22;43277;52.672;6.984;2022-08-21T07:28:36;19.10;99.90
57434;DHT22;43277;52.672;6.984;2022-08-21T07:31:03;19.30;99.90
57434;DHT22;43277;52.672;6.984;2022-08-21T07:33:31;19.40;99.90
57434;DHT22;43277;52.672;6.984;2022-08-21T07:35:57;19.50;99.90
57434;DHT22;43277;52.672;6.984;2022-08-21T07:38:23;19.60;99.90
57434;DHT22;43277;52.672;6.984;2022-08-21T07:40:51;19.60;99.90
57434;DHT22;43277;52.672;6.984;2022-08-21T07:43:17;19.70;99.90
57434;DHT22;43277;52.672;6.984;2022-08-21T07:45:44;19.80;99.90
57434;DHT22;43277;52.672;6.984;2022-08-21T07:48:10;20.00;99.90
57434;DHT22;43277;52.672;6.984;2022-08-21T07:50:36;20.00;99.90
57434;DHT22;43277;52.672;6.984;2022-08-21T07:53:02;20.10;99.90
57434;DHT22;43277;52.672;6.984;2022-08-21T07:55:28;20.20;99.90
57434;DHT22;43277;52.672;6.984;2022-08-21T07:57:53;20.30;99.90
57434;DHT22;43277;52.672;6.984;2022-08-21T08:00:23;20.40;99.90
57434;DHT22;43277;52.672;6.984;2022-08-21T08:02:50;20.70;99.90
57434;DHT22;43277;52.672;6.984;2022-08-21T08:05:18;20.70;99.90
57434;DHT22;43277;52.672;6.984;2022-08-21T08:07:44;20.60;99.90
57434;DHT22;43277;52.672;6.984;2022-08-21T08:10:10;20.70;99.90
57434;DHT22;43277;52.672;6.984;2022-08-21T08:12:38;20.80;99.90
57434;DHT22;43277;52.672;6.984;2022-08-21T08:15:09;20.80;99.90
57434;DHT22;43277;52.672;6.984;2022-08-21T08:17:35;20.90;99.90
57434;DHT22;43277;52.672;6.984;2022-08-21T08:20:03;21.00;99.90
57434;DHT22;43277;52.672;6.984;2022-08-21T08:22:29;20.90;99.90
57434;DHT22;43277;52.672;6.984;2022-08-21T08:24:55;21.00;99.90
57434;DHT22;43277;52.672;6.984;2022-08-21T08:27:21;20.90;99.90
57434;DHT22;43277;52.672;6.984;2022-08-21T08:29:47;21.00;99.90
57434;DHT22;43277;52.672;6.984;2022-08-21T08:32:13;21.00;99.90
57434;DHT22;43277;52.672;6.984;2022-08-21T08:34:39;21.00;99.90
57434;DHT22;43277;52.672;6.984;2022-08-21T08:37:07;21.20;99.90
57434;DHT22;43277;52.672;6.984;2022-08-21T08:39:34;21.30;99.80
57434;DHT22;43277;52.672;6.984;2022-08-21T08:42:09;21.30;99.70
57434;DHT22;43277;52.672;6.984;2022-08-21T08:44:37;21.50;99.50
57434;DHT22;43277;52.672;6.984;2022-08-21T08:47:04;21.60;98.40
57434;DHT22;43277;52.672;6.984;2022-08-21T08:49:56;21.70;99.00
57434;DHT22;43277;52.672;6.984;2022-08-21T08:52:33;21.70;98.30
57434;DHT22;43277;52.672;6.984;2022-08-21T08:55:05;21.70;98.90
57434;DHT22;43277;52.672;6.984;2022-08-21T08:57:32;21.90;97.70
57434;DHT22;43277;52.672;6.984;2022-08-21T09:00:01;21.90;98.30
57434;DHT22;43277;52.672;6.984;2022-08-21T09:02:29;22.00;98.70
57434;DHT22;43277;52.672;6.984;2022-08-21T09:04:56;22.30;97.10
57434;DHT22;43277;52.672;6.984;2022-08-21T09:10:30;22.50;95.10
57434;DHT22;43277;52.672;6.984;2022-08-21T09:16:05;22.50;94.60
57434;DHT22;43277;52.672;6.984;2022-08-21T09:29:31;22.80;94.20
57434;DHT22;43277;52.672;6.984;2022-08-21T09:31:58;22.90;94.30
57434;DHT22;43277;52.672;6.984;2022-08-21T09:34:28;23.10;94.40
57434;DHT22;43277;52.672;6.984;2022-08-21T09:36:55;23.30;92.90
57434;DHT22;43277;52.672;6.984;2022-08-21T09:39:32;23.40;92.60
57434;DHT22;43277;52.672;6.984;2022-08-21T09:42:08;23.50;92.30
57434;DHT22;43277;52.672;6.984;2022-08-21T09:44:38;23.60;91.20
57434;DHT22;43277;52.672;6.984;2022-08-21T09:47:06;23.60;90.70
57434;DHT22;43277;52.672;6.984;2022-08-21T09:49:38;23.50;90.80
57434;DHT22;43277;52.672;6.984;2022-08-21T09:52:19;23.40;90.50
57434;DHT22;43277;52.672;6.984;2022-08-21T09:54:50;23.30;91.40
57434;DHT22;43277;52.672;6.984;2022-08-21T09:57:27;23.30;91.50
57434;DHT22;43277;52.672;6.984;2022-08-21T10:00:28;23.50;92.50
57434;DHT22;43277;52.672;6.984;2022-08-21T10:03:17;23.80;90.80
57434;DHT22;43277;52.672;6.984;2022-08-21T10:06:00;23.80;90.30
57434;DHT22;43277;52.672;6.984;2022-08-21T10:08:31;23.90;90.80
57434;DHT22;43277;52.672;6.984;2022-08-21T10:11:07;23.90;90.70
57434;DHT22;43277;52.672;6.984;2022-08-21T10:24:31;24.40;87.90
57434;DHT22;43277;52.672;6.984;2022-08-21T10:27:22;24.40;87.60
57434;DHT22;43277;52.672;6.984;2022-08-21T10:40:19;25.00;85.70
57434;DHT22;43277;52.672;6.984;2022-08-21T10:48:24;25.10;86.70
57434;DHT22;43277;52.672;6.984;2022-08-21T10:50:52;25.40;82.60
57434;DHT22;43277;52.672;6.984;2022-08-21T10:53:41;25.50;82.40
57434;DHT22;43277;52.672;6.984;2022-08-21T10:56:26;25.70;80.00
57434;DHT22;43277;52.672;6.984;2022-08-21T11:04:28;25.60;81.40
57434;DHT22;43277;52.672;6.984;2022-08-21T11:07:10;25.40;77.50
57434;DHT22;43277;52.672;6.984;2022-08-21T11:09:40;25.40;77.50
57434;DHT22;43277;52.672;6.984;2022-08-21T11:15:18;25.60;79.30
57434;DHT22;43277;52.672;6.984;2022-08-21T11:17:52;25.70;76.90
57434;DHT22;43277;52.672;6.984;2022-08-21T11:23:08;25.80;84.60
57434;DHT22;43277;52.672;6.984;2022-08-21T11:25:40;26.30;76.60
57434;DHT22;43277;52.672;6.984;2022-08-21T11:28:33;26.30;74.40
57434;DHT22;43277;52.672;6.984;2022-08-21T11:34:20;26.20;73.40
57434;DHT22;43277;52.672;6.984;2022-08-21T11:37:21;26.10;76.20
57434;DHT22;43277;52.672;6.984;2022-08-21T11:40:05;25.90;75.60
57434;DHT22;43277;52.672;6.984;2022-08-21T11:42:43;25.70;76.10
57434;DHT22;43277;52.672;6.984;2022-08-21T11:50:42;26.40;79.30
57434;DHT22;43277;52.672;6.984;2022-08-21T11:53:26;26.80;74.30
57434;DHT22;43277;52.672;6.984;2022-08-21T11:56:00;27.20;72.70
57434;DHT22;43277;52.672;6.984;2022-08-21T11:58:38;27.40;76.10
57434;DHT22;43277;52.672;6.984;2022-08-21T12:01:09;27.70;74.40
57434;DHT22;43277;52.672;6.984;2022-08-21T12:03:40;27.80;71.30
57434;DHT22;43277;52.672;6.984;2022-08-21T12:06:11;27.80;70.20
57434;DHT22;43277;52.672;6.984;2022-08-21T12:08:41;27.80;69.40
57434;DHT22;43277;52.672;6.984;2022-08-21T12:16:34;28.00;66.70
57434;DHT22;43277;52.672;6.984;2022-08-21T12:19:30;28.00;65.70
57434;DHT22;43277;52.672;6.984;2022-08-21T12:22:09;27.80;66.80
57434;DHT22;43277;52.672;6.984;2022-08-21T12:24:41;27.60;68.20
57434;DHT22;43277;52.672;6.984;2022-08-21T12:27:29;27.60;67.90
57434;DHT22;43277;52.672;6.984;2022-08-21T12:30:05;27.80;69.30
57434;DHT22;43277;52.672;6.984;2022-08-21T12:35:14;28.00;65.60
57434;DHT22;43277;52.672;6.984;2022-08-21T12:37:47;28.00;63.70
57434;DHT22;43277;52.672;6.984;2022-08-21T12:40:49;28.00;64.10
57434;DHT22;43277;52.672;6.984;2022-08-21T12:43:33;28.00;64.20
57434;DHT22;43277;52.672;6.984;2022-08-21T12:45:59;27.80;64.40
57434;DHT22;43277;52.672;6.984;2022-08-21T12:48:47;27.80;65.70
57434;DHT22;43277;52.672;6.984;2022-08-21T12:51:29;27.90;64.00
57434;DHT22;43277;52.672;6.984;2022-08-21T12:53:58;27.80;68.70
57434;DHT22;43277;52.672;6.984;2022-08-21T12:56:26;28.00;65.30
57434;DHT22;43277;52.672;6.984;2022-08-21T12:59:12;28.10;65.90
57434;DHT22;43277;52.672;6.984;2022-08-21T13:01:45;28.40;62.70
57434;DHT22;43277;52.672;6.984;2022-08-21T13:04:18;28.40;63.20
57434;DHT22;43277;52.672;6.984;2022-08-21T13:06:50;28.50;58.60
57434;DHT22;43277;52.672;6.984;2022-08-21T13:09:20;28.00;59.60
57434;DHT22;43277;52.672;6.984;2022-08-21T13:11:49;27.60;60.60
57434;DHT22;43277;52.672;6.984;2022-08-21T13:16:57;27.50;63.80
57434;DHT22;43277;52.672;6.984;2022-08-21T13:19:23;27.80;62.10
57434;DHT22;43277;52.672;6.984;2022-08-21T13:21:50;27.80;64.70
57434;DHT22;43277;52.672;6.984;2022-08-21T13:24:30;28.10;63.60
57434;DHT22;43277;52.672;6.984;2022-08-21T13:26:57;28.30;61.60
57434;DHT22;43277;52.672;6.984;2022-08-21T13:29:29;28.20;60.00
57434;DHT22;43277;52.672;6.984;2022-08-21T13:31:57;28.20;59.20
57434;DHT22;43277;52.672;6.984;2022-08-21T13:34:26;28.00;60.10
57434;DHT22;43277;52.672;6.984;2022-08-21T13:36:59;28.00;59.50
57434;DHT22;43277;52.672;6.984;2022-08-21T13:39:25;28.10;63.50
57434;DHT22;43277;52.672;6.984;2022-08-21T13:41:55;28.30;59.90
57434;DHT22;43277;52.672;6.984;2022-08-21T13:44:22;28.40;62.60
57434;DHT22;43277;52.672;6.984;2022-08-21T13:46:52;28.60;61.00
57434;DHT22;43277;52.672;6.984;2022-08-21T13:49:26;28.80;61.70
57434;DHT22;43277;52.672;6.984;2022-08-21T13:51:54;29.20;60.00
57434;DHT22;43277;52.672;6.984;2022-08-21T13:54:25;29.30;59.70
57434;DHT22;43277;52.672;6.984;2022-08-21T13:56:53;29.40;61.60
57434;DHT22;43277;52.672;6.984;2022-08-21T13:59:33;29.60;58.60
57434;DHT22;43277;52.672;6.984;2022-08-21T14:02:01;29.60;57.00
57434;DHT22;43277;52.672;6.984;2022-08-21T14:05:02;29.30;56.30
57434;DHT22;43277;52.672;6.984;2022-08-21T14:10:01;28.20;59.40
57434;DHT22;43277;52.672;6.984;2022-08-21T14:12:43;27.70;61.50
57434;DHT22;43277;52.672;6.984;2022-08-21T14:15:13;27.80;60.50
57434;DHT22;43277;52.672;6.984;2022-08-21T14:17:40;27.90;62.00
57434;DHT22;43277;52.672;6.984;2022-08-21T14:20:10;27.80;61.90
57434;DHT22;43277;52.672;6.984;2022-08-21T14:22:46;27.70;62.20
57434;DHT22;43277;52.672;6.984;2022-08-21T14:25:28;27.60;62.30
57434;DHT22;43277;52.672;6.984;2022-08-21T14:28:03;27.50;62.90
57434;DHT22;43277;52.672;6.984;2022-08-21T14:30:37;27.30;65.30
57434;DHT22;43277;52.672;6.984;2022-08-21T14:33:07;27.20;65.00
57434;DHT22;43277;52.672;6.984;2022-08-21T14:35:34;27.10;64.20
57434;DHT22;43277;52.672;6.984;2022-08-21T14:37:59;26.80;64.40
57434;DHT22;43277;52.672;6.984;2022-08-21T14:40:25;26.60;66.60
57434;DHT22;43277;52.672;6.984;2022-08-21T14:42:51;26.50;68.60
57434;DHT22;43277;52.672;6.984;2022-08-21T14:45:25;26.50;72.30
57434;DHT22;43277;52.672;6.984;2022-08-21T14:47:51;26.50;74.40
57434;DHT22;43277;52.672;6.984;2022-08-21T14:50:17;26.60;69.90
57434;DHT22;43277;52.672;6.984;2022-08-21T14:52:43;26.60;69.60
57434;DHT22;43277;52.672;6.984;2022-08-21T14:55:11;26.80;68.00
57434;DHT22;43277;52.672;6.984;2022-08-21T14:57:40;27.10;67.30
57434;DHT22;43277;52.672;6.984;2022-08-21T15:00:09;27.20;66.30
57434;DHT22;43277;52.672;6.984;2022-08-21T15:02:36;27.10;67.30
57434;DHT22;43277;52.672;6.984;2022-08-21T15:05:03;27.00;66.20
57434;DHT22;43277;52.672;6.984;2022-08-21T15:07:29;26.90;72.30
57434;DHT22;43277;52.672;6.984;2022-08-21T15:09:54;27.00;69.20
57434;DHT22;43277;52.672;6.984;2022-08-21T15:12:20;27.10;67.40
57434;DHT22;43277;52.672;6.984;2022-08-21T15:14:46;27.20;67.20
57434;DHT22;43277;52.672;6.984;2022-08-21T15:17:12;27.20;70.30
57434;DHT22;43277;52.672;6.984;2022-08-21T15:19:37;27.10;71.00
57434;DHT22;43277;52.672;6.984;2022-08-21T15:22:04;27.10;73.90
57434;DHT22;43277;52.672;6.984;2022-08-21T15:24:30;27.10;72.00
57434;DHT22;43277;52.672;6.984;2022-08-21T15:26:56;27.10;74.40
57434;DHT22;43277;52.672;6.984;2022-08-21T15:29:24;27.20;74.40
57434;DHT22;43277;52.672;6.984;2022-08-21T15:31:55;27.20;77.30
57434;DHT22;43277;52.672;6.984;2022-08-21T15:34:22;27.10;79.10
57434;DHT22;43277;52.672;6.984;2022-08-21T15:36:49;27.00;80.10
57434;DHT22;43277;52.672;6.984;2022-08-21T15:39:14;27.00;80.60
57434;DHT22;43277;52.672;6.984;2022-08-21T15:41:40;26.90;77.10
57434;DHT22;43277;52.672;6.984;2022-08-21T15:44:06;26.90;73.60
57434;DHT22;43277;52.672;6.984;2022-08-21T15:46:34;26.90;79.00
57434;DHT22;43277;52.672;6.984;2022-08-21T15:48:59;27.10;77.00
57434;DHT22;43277;52.672;6.984;2022-08-21T15:51:25;27.40;74.80
57434;DHT22;43277;52.672;6.984;2022-08-21T15:53:51;27.50;77.70
57434;DHT22;43277;52.672;6.984;2022-08-21T15:56:44;27.60;78.60
57434;DHT22;43277;52.672;6.984;2022-08-21T15:59:19;27.60;77.10
57434;DHT22;43277;52.672;6.984;2022-08-21T16:01:48;27.70;77.30
57434;DHT22;43277;52.672;6.984;2022-08-21T16:04:22;28.00;73.70
57434;DHT22;43277;52.672;6.984;2022-08-21T16:06:48;28.20;73.80
57434;DHT22;43277;52.672;6.984;2022-08-21T16:09:14;28.10;75.20
57434;DHT22;43277;52.672;6.984;2022-08-21T16:11:41;27.90;76.90
57434;DHT22;43277;52.672;6.984;2022-08-21T16:14:07;27.70;73.40
57434;DHT22;43277;52.672;6.984;2022-08-21T16:16:34;27.40;72.80
57434;DHT22;43277;52.672;6.984;2022-08-21T16:19:00;27.10;73.20
57434;DHT22;43277;52.672;6.984;2022-08-21T16:21:27;26.90;76.30
57434;DHT22;43277;52.672;6.984;2022-08-21T16:23:53;26.60;76.80
57434;DHT22;43277;52.672;6.984;2022-08-21T16:26:18;26.20;79.40
57434;DHT22;43277;52.672;6.984;2022-08-21T16:28:44;26.00;77.40
57434;DHT22;43277;52.672;6.984;2022-08-21T16:31:11;25.70;81.50
57434;DHT22;43277;52.672;6.984;2022-08-21T16:33:40;25.60;84.70
57434;DHT22;43277;52.672;6.984;2022-08-21T16:36:07;25.30;87.90
57434;DHT22;43277;52.672;6.984;2022-08-21T16:38:33;25.20;90.40
57434;DHT22;43277;52.672;6.984;2022-08-21T16:41:06;25.10;90.70
57434;DHT22;43277;52.672;6.984;2022-08-21T16:43:33;25.00;92.70
57434;DHT22;43277;52.672;6.984;2022-08-21T16:46:00;24.90;93.90
57434;DHT22;43277;52.672;6.984;2022-08-21T16:48:26;24.90;94.40
57434;DHT22;43277;52.672;6.984;2022-08-21T16:50:55;24.90;93.50
57434;DHT22;43277;52.672;6.984;2022-08-21T16:53:20;24.80;93.30
57434;DHT22;43277;52.672;6.984;2022-08-21T16:55:47;24.70;93.50
57434;DHT22;43277;52.672;6.984;2022-08-21T16:58:22;24.80;95.10
57434;DHT22;43277;52.672;6.984;2022-08-21T17:00:49;24.90;95.00